Time;durP1;ratioP1;P1;durP2;ratioP2;P2;SDS_P1;SDS_P2;PMS_P1;PMS_P2;Temp;Humidity;BMP_temperature;BMP_pressure;BME280_temperature;BME280_humidity;BME280_pressure;Samples;Min_cycle;Max_cycle;Signal;HPM_P1;HPM_P2
2021/11/12 00:03:46;;;;;;;;;;;21.80;42.20;;;;;;1595538;73;1626;-70
2021/11/12 00:14:43;;;;;;;;;;;21.90;42.40;;;;;;1615609;73;856;-71
2021/11/12 00:16:39;;;;;;;;;;;21.90;42.30;;;;;;1615226;73;1100;-71
2021/11/12 00:18:42;;;;;;;;;;;21.90;42.30;;;;;;1612837;73;620;-71
2021/11/12 00:20:45;;;;;;;;;;;21.90;42.30;;;;;;1587635;75;724;-71
2021/11/12 00:22:47;;;;;;;;;;;21.90;42.30;;;;;;1587710;75;1109;-70
2021/11/12 00:24:49;;;;;;;;;;;22.00;42.30;;;;;;1588542;73;1922;-71
2021/11/12 00:26:51;;;;;;;;;;;21.90;42.30;;;;;;1587558;75;720;-71
2021/11/12 00:28:57;;;;;;;;;;;22.00;42.30;;;;;;1587863;75;703;-71
2021/11/12 00:35:45;;;;;;;;;;;22.00;42.10;;;;;;1587838;75;1642;-72
2021/11/12 00:38:04;;;;;;;;;;;22.00;42.20;;;;;;1601798;72;1131;-72
2021/11/12 00:40:17;;;;;;;;;;;22.10;42.20;;;;;;1585793;73;1491;-72
2021/11/12 00:42:19;;;;;;;;;;;22.10;42.20;;;;;;1584819;75;1545;-72
2021/11/12 00:44:29;;;;;;;;;;;22.10;42.10;;;;;;1613244;73;1924;-71
2021/11/12 00:46:37;;;;;;;;;;;22.10;42.10;;;;;;1613479;73;1552;-71
2021/11/12 00:48:47;;;;;;;;;;;22.20;42.00;;;;;;1615584;73;1639;-71
2021/11/12 00:54:52;;;;;;;;;;;22.20;41.80;;;;;;1615225;73;867;-71
2021/11/12 00:56:54;;;;;;;;;;;22.20;41.80;;;;;;1615482;73;763;-70
2021/11/12 00:58:58;;;;;;;;;;;22.20;41.80;;;;;;1615821;73;632;-70
2021/11/12 01:01:02;;;;;;;;;;;22.20;41.80;;;;;;1615716;73;664;-70
2021/11/12 01:03:04;;;;;;;;;;;22.20;41.90;;;;;;1614916;73;1110;-71
2021/11/12 01:05:07;;;;;;;;;;;22.20;41.90;;;;;;1615492;73;1911;-72
2021/11/12 01:07:09;;;;;;;;;;;22.10;42.00;;;;;;1615771;73;704;-72
2021/11/12 01:09:11;;;;;;;;;;;22.10;42.10;;;;;;1615445;73;754;-72
2021/11/12 01:11:13;;;;;;;;;;;22.10;42.20;;;;;;1615729;73;1071;-71
2021/11/12 01:13:15;;;;;;;;;;;22.10;42.30;;;;;;1588821;73;742;-71
2021/11/12 01:15:17;;;;;;;;;;;22.10;42.30;;;;;;1587720;75;607;-71
2021/11/12 01:17:19;;;;;;;;;;;22.00;42.30;;;;;;1587869;75;745;-70
2021/11/12 01:19:21;;;;;;;;;;;22.10;42.50;;;;;;1597600;73;796;-70
2021/11/12 01:21:24;;;;;;;;;;;22.10;42.40;;;;;;1606930;73;1168;-70
2021/11/12 01:23:26;;;;;;;;;;;22.10;42.40;;;;;;1616264;73;734;-71
2021/11/12 01:25:28;;;;;;;;;;;22.10;42.40;;;;;;1599578;73;1933;-70
2021/11/12 01:27:32;;;;;;;;;;;22.10;42.30;;;;;;1603233;74;699;-69
2021/11/12 01:29:35;;;;;;;;;;;22.00;42.30;;;;;;1603383;73;1597;-70
2021/11/12 01:31:37;;;;;;;;;;;22.00;42.20;;;;;;1603010;74;1148;-71
2021/11/12 01:33:39;;;;;;;;;;;22.10;42.30;;;;;;1609819;73;741;-71
2021/11/12 01:35:42;;;;;;;;;;;22.10;42.30;;;;;;1615723;73;731;-70
2021/11/12 01:37:45;;;;;;;;;;;22.10;42.30;;;;;;1615471;73;681;-69
2021/11/12 01:39:52;;;;;;;;;;;22.00;42.30;;;;;;1596954;73;680;-70
2021/11/12 01:41:58;;;;;;;;;;;22.10;42.30;;;;;;1586569;74;1621;-70
2021/11/12 01:43:55;;;;;;;;;;;22.10;42.30;;;;;;1586672;74;1234;-70
2021/11/12 01:46:12;;;;;;;;;;;22.10;42.30;;;;;;1587745;75;1929;-71
2021/11/12 01:48:20;;;;;;;;;;;22.10;42.30;;;;;;1609153;73;1619;-70
2021/11/12 01:50:20;;;;;;;;;;;22.10;42.20;;;;;;1615208;73;1660;-70
2021/11/12 01:52:57;;;;;;;;;;;22.10;42.30;;;;;;1615512;72;1517;-70
2021/11/12 01:57:22;;;;;;;;;;;22.00;42.20;;;;;;1587613;74;767;-71
2021/11/12 02:01:03;;;;;;;;;;;22.00;42.30;;;;;;1587566;75;1649;-71
2021/11/12 02:03:05;;;;;;;;;;;22.00;42.40;;;;;;1600606;73;1181;-70
2021/11/12 02:05:07;;;;;;;;;;;22.00;42.50;;;;;;1609980;73;1930;-70
2021/11/12 02:07:11;;;;;;;;;;;21.90;42.60;;;;;;1604224;73;740;-70
2021/11/12 02:09:19;;;;;;;;;;;21.90;42.60;;;;;;1593150;73;912;-71
2021/11/12 02:11:22;;;;;;;;;;;21.90;42.60;;;;;;1587787;73;1141;-71
2021/11/12 02:13:25;;;;;;;;;;;22.00;42.70;;;;;;1587454;74;738;-71
2021/11/12 02:15:27;;;;;;;;;;;21.90;42.70;;;;;;1602149;73;665;-71
2021/11/12 02:17:33;;;;;;;;;;;21.90;42.70;;;;;;1615723;73;728;-70
2021/11/12 02:19:35;;;;;;;;;;;21.90;42.80;;;;;;1615268;73;1524;-71
2021/11/12 02:23:46;;;;;;;;;;;22.00;42.80;;;;;;1604612;73;865;-70
2021/11/12 02:25:45;;;;;;;;;;;22.00;42.80;;;;;;1586707;75;1906;-71
2021/11/12 02:27:54;;;;;;;;;;;22.00;42.80;;;;;;1587805;75;744;-71
2021/11/12 02:29:55;;;;;;;;;;;21.90;42.90;;;;;;1598577;73;1561;-71
2021/11/12 02:31:56;;;;;;;;;;;22.00;42.90;;;;;;1600949;73;1520;-71
2021/11/12 02:34:02;;;;;;;;;;;21.90;43.00;;;;;;1587908;75;698;-70
2021/11/12 02:36:12;;;;;;;;;;;21.90;42.90;;;;;;1587435;75;1562;-71
2021/11/12 02:38:14;;;;;;;;;;;22.00;43.00;;;;;;1604002;72;758;-70
2021/11/12 02:40:16;;;;;;;;;;;21.90;43.00;;;;;;1614840;73;869;-70
2021/11/12 02:42:18;;;;;;;;;;;21.90;43.10;;;;;;1615571;73;1161;-70
2021/11/12 02:44:20;;;;;;;;;;;21.90;43.00;;;;;;1615471;73;702;-69
2021/11/12 02:46:23;;;;;;;;;;;21.90;43.00;;;;;;1615617;73;1904;-70
2021/11/12 02:48:25;;;;;;;;;;;21.90;43.00;;;;;;1615615;73;778;-70
2021/11/12 02:50:27;;;;;;;;;;;21.90;43.00;;;;;;1591449;73;674;-70
2021/11/12 02:52:29;;;;;;;;;;;21.90;43.00;;;;;;1577201;74;227898;-59
2021/11/12 02:54:31;;;;;;;;;;;21.90;43.10;;;;;;1574328;74;731;-58
2021/11/12 02:56:33;;;;;;;;;;;21.90;43.10;;;;;;1574101;75;1140;-58
2021/11/12 02:58:37;;;;;;;;;;;21.90;43.10;;;;;;1574145;75;687;-59
2021/11/12 03:00:39;;;;;;;;;;;21.90;43.10;;;;;;1564463;74;1526;-58
2021/11/12 03:02:41;;;;;;;;;;;21.90;43.00;;;;;;1547071;77;704;-58
2021/11/12 03:04:43;;;;;;;;;;;21.90;43.10;;;;;;1547271;77;1920;-58
2021/11/12 03:06:45;;;;;;;;;;;21.90;43.10;;;;;;1547031;77;1107;-59
2021/11/12 03:08:48;;;;;;;;;;;21.90;43.10;;;;;;1559962;74;666;-58
2021/11/12 03:10:56;;;;;;;;;;;21.90;43.10;;;;;;1573991;75;750;-58
2021/11/12 03:12:58;;;;;;;;;;;21.90;43.10;;;;;;1573595;75;683;-59
2021/11/12 03:15:00;;;;;;;;;;;21.90;43.10;;;;;;1552221;75;712;-58
2021/11/12 03:17:02;;;;;;;;;;;21.90;43.00;;;;;;1547196;74;1115;-59
2021/11/12 03:19:05;;;;;;;;;;;21.90;43.00;;;;;;1573919;75;741;-59
2021/11/12 03:21:08;;;;;;;;;;;21.90;43.00;;;;;;1574099;75;765;-58
2021/11/12 03:23:18;;;;;;;;;;;21.90;43.10;;;;;;1574011;75;671;-58
2021/11/12 03:27:47;;;;;;;;;;;22.00;43.00;;;;;;1574012;75;859;-58
2021/11/12 04:03:44;;;;;;;;;;;22.10;42.80;;;;;;1573265;74;744;-56
2021/11/12 04:19:38;;;;;;;;;;;22.10;43.10;;;;;;1547324;77;924;-56
2021/11/12 04:31:16;;;;;;;;;;;22.10;43.20;;;;;;1527312;78;1646;-58
2021/11/12 05:10:11;;;;;;;;;;;22.20;43.50;;;;;;1573731;75;762;-57
2021/11/12 05:51:07;;;;;;;;;;;22.70;42.40;;;;;;1572933;74;1688;-58
2021/11/12 05:55:21;;;;;;;;;;;22.90;42.10;;;;;;1573243;74;1682;-57
2021/11/12 05:57:23;;;;;;;;;;;23.00;41.80;;;;;;1574029;75;673;-57
2021/11/12 05:59:25;;;;;;;;;;;23.10;41.80;;;;;;1574187;75;797;-58
2021/11/12 06:01:26;;;;;;;;;;;23.10;41.70;;;;;;1567667;75;801;-58
2021/11/12 06:03:28;;;;;;;;;;;23.10;41.50;;;;;;1573054;74;673;-57
2021/11/12 06:05:31;;;;;;;;;;;23.00;41.40;;;;;;1574104;75;1946;-57
2021/11/12 06:07:33;;;;;;;;;;;23.10;41.40;;;;;;1573596;75;760;-57
2021/11/12 06:09:35;;;;;;;;;;;23.10;41.30;;;;;;1574146;75;796;-57
2021/11/12 06:11:37;;;;;;;;;;;23.10;41.30;;;;;;1572947;74;651;-57
2021/11/12 06:13:39;;;;;;;;;;;23.10;41.20;;;;;;1573775;75;760;-57
2021/11/12 06:15:40;;;;;;;;;;;23.10;41.20;;;;;;1536441;75;1138;-57
2021/11/12 06:17:46;;;;;;;;;;;23.10;41.10;;;;;;1547716;75;717;-57
2021/11/12 06:19:46;;;;;;;;;;;23.10;41.30;;;;;;1558166;74;1154;-58
2021/11/12 06:21:48;;;;;;;;;;;23.10;41.10;;;;;;1567234;75;712;-58
2021/11/12 06:23:50;;;;;;;;;;;23.20;41.10;;;;;;1570995;74;794;-57
2021/11/12 06:25:52;;;;;;;;;;;23.20;41.00;;;;;;1562182;75;1941;-57
2021/11/12 06:27:54;;;;;;;;;;;23.10;41.10;;;;;;1560172;75;727;-58
2021/11/12 06:29:56;;;;;;;;;;;23.10;41.10;;;;;;1561343;75;795;-56
2021/11/12 06:31:58;;;;;;;;;;;23.10;41.00;;;;;;1557553;75;757;-58
2021/11/12 06:34:00;;;;;;;;;;;23.10;41.00;;;;;;1560344;74;762;-57
2021/11/12 06:36:02;;;;;;;;;;;23.10;41.00;;;;;;1555555;75;1134;-57
2021/11/12 06:38:03;;;;;;;;;;;23.10;41.00;;;;;;1562014;75;683;-56
2021/11/12 06:40:06;;;;;;;;;;;23.10;40.90;;;;;;1559860;74;765;-57
2021/11/12 06:42:17;;;;;;;;;;;23.10;40.80;;;;;;1558451;75;821;-57
2021/11/12 06:51:01;;;;;;;;;;;23.10;40.80;;;;;;1552152;74;1673;-56
2021/11/12 06:53:04;;;;;;;;;;;23.10;40.70;;;;;;1546117;77;738;-56
2021/11/12 06:55:08;;;;;;;;;;;23.10;40.70;;;;;;1565485;74;1108;-57
2021/11/12 06:57:09;;;;;;;;;;;23.10;40.70;;;;;;1574045;75;1681;-58
2021/11/12 06:59:11;;;;;;;;;;;23.10;40.70;;;;;;1574244;75;1084;-58
2021/11/12 07:01:13;;;;;;;;;;;23.10;40.60;;;;;;1573895;75;706;-58
2021/11/12 07:03:15;;;;;;;;;;;23.20;40.60;;;;;;1573359;74;773;-56
2021/11/12 07:05:17;;;;;;;;;;;23.20;40.50;;;;;;1574275;75;1126;-56
2021/11/12 07:07:19;;;;;;;;;;;23.20;40.50;;;;;;1573758;75;1928;-58
2021/11/12 07:09:21;;;;;;;;;;;23.10;40.50;;;;;;1573601;74;793;-57
2021/11/12 07:11:22;;;;;;;;;;;23.20;40.40;;;;;;1574223;75;762;-57
2021/11/12 07:13:32;;;;;;;;;;;23.10;40.20;;;;;;1571372;74;772;-57
2021/11/12 07:15:31;;;;;;;;;;;23.20;40.40;;;;;;1557561;74;1251;-57
2021/11/12 07:17:33;;;;;;;;;;;23.10;40.40;;;;;;1557947;75;782;-57
2021/11/12 07:19:35;;;;;;;;;;;23.10;40.40;;;;;;1563535;75;679;-58
2021/11/12 07:21:39;;;;;;;;;;;23.10;40.30;;;;;;1568876;75;653;-57
2021/11/12 07:23:40;;;;;;;;;;;23.20;40.20;;;;;;1557050;74;1642;-57
2021/11/12 07:25:43;;;;;;;;;;;23.20;40.10;;;;;;1553960;75;1126;-56
2021/11/12 07:27:45;;;;;;;;;;;23.20;40.00;;;;;;1556897;75;1906;-57
2021/11/12 07:29:48;;;;;;;;;;;23.20;40.10;;;;;;1558646;75;674;-56
2021/11/12 07:31:51;;;;;;;;;;;23.20;40.00;;;;;;1561387;74;762;-57
2021/11/12 07:33:58;;;;;;;;;;;23.20;40.00;;;;;;1554576;75;754;-57
2021/11/12 07:36:08;;;;;;;;;;;23.30;40.10;;;;;;1567123;75;1683;-58
2021/11/12 07:38:11;;;;;;;;;;;23.20;40.00;;;;;;1552994;75;1752;-58
2021/11/12 07:40:09;;;;;;;;;;;23.20;40.00;;;;;;1555813;75;1514;-57
2021/11/12 07:42:18;;;;;;;;;;;23.20;40.00;;;;;;1564050;74;1648;-58
2021/11/12 07:46:32;;;;;;;;;;;23.20;40.00;;;;;;1569842;75;1951;-58
2021/11/12 07:48:24;;;;;;;;;;;23.10;40.20;;;;;;1561495;75;1088;-58
2021/11/12 07:50:26;;;;;;;;;;;23.10;40.20;;;;;;1564986;74;754;-58
2021/11/12 07:52:29;;;;;;;;;;;23.10;40.30;;;;;;1560836;75;821;-58
2021/11/12 07:54:31;;;;;;;;;;;23.10;40.40;;;;;;1561399;74;767;-58
2021/11/12 07:56:33;;;;;;;;;;;23.10;40.40;;;;;;1571822;75;1130;-58
2021/11/12 07:58:35;;;;;;;;;;;23.10;40.40;;;;;;1557510;75;800;-58
2021/11/12 08:00:36;;;;;;;;;;;23.10;40.40;;;;;;1556373;75;624;-58
2021/11/12 08:02:39;;;;;;;;;;;23.20;40.40;;;;;;1552105;75;761;-58
2021/11/12 08:04:41;;;;;;;;;;;23.20;40.50;;;;;;1557461;74;901;-58
2021/11/12 08:06:42;;;;;;;;;;;23.20;40.50;;;;;;1557126;75;1949;-58
2021/11/12 08:08:52;;;;;;;;;;;23.20;40.50;;;;;;1552262;75;739;-58
2021/11/12 08:10:57;;;;;;;;;;;23.20;40.50;;;;;;1553759;75;1615;-58
2021/11/12 08:13:07;;;;;;;;;;;23.20;40.50;;;;;;1552785;74;1538;-58
2021/11/12 08:19:33;;;;;;;;;;;23.20;40.70;;;;;;1552698;75;863;-58
2021/11/12 08:21:44;;;;;;;;;;;23.20;40.80;;;;;;1549290;74;1652;-58
2021/11/12 08:24:48;;;;;;;;;;;23.30;40.90;;;;;;1552386;74;1616;-57
2021/11/12 08:26:12;;;;;;;;;;;23.20;40.90;;;;;;1541044;75;1391;-58
2021/11/12 08:37:03;;;;;;;;;;;23.10;41.30;;;;;;1549911;74;1121;-58
2021/11/12 08:39:14;;;;;;;;;;;23.00;41.30;;;;;;1547910;72;225424;-68
2021/11/12 08:41:20;;;;;;;;;;;23.00;41.50;;;;;;1545560;77;1678;-68
2021/11/12 08:43:31;;;;;;;;;;;22.90;41.60;;;;;;1547566;77;1241;-68
2021/11/12 08:45:41;;;;;;;;;;;22.80;41.70;;;;;;1548359;76;1611;-68
2021/11/12 08:47:44;;;;;;;;;;;22.80;41.80;;;;;;1540339;77;1924;-68
2021/11/12 08:49:38;;;;;;;;;;;22.70;42.00;;;;;;1543323;75;1543;-68
2021/11/12 08:51:41;;;;;;;;;;;22.70;42.10;;;;;;1546563;72;222026;-60
2021/11/12 08:53:44;;;;;;;;;;;22.70;42.10;;;;;;1566982;75;688;-58
2021/11/12 08:55:48;;;;;;;;;;;22.70;42.20;;;;;;1558662;75;1216;-59
2021/11/12 08:57:50;;;;;;;;;;;22.60;42.10;;;;;;1558826;76;707;-57
2021/11/12 08:59:52;;;;;;;;;;;22.80;42.30;;;;;;1537319;76;737;-56
2021/11/12 09:01:54;;;;;;;;;;;22.70;42.30;;;;;;1537245;76;733;-56
2021/11/12 09:03:56;;;;;;;;;;;22.70;42.30;;;;;;1554428;76;714;-57
2021/11/12 09:05:58;;;;;;;;;;;22.70;42.30;;;;;;1554340;76;1078;-56
2021/11/12 09:08:01;;;;;;;;;;;22.70;42.30;;;;;;1558782;76;1955;-57
2021/11/12 09:10:03;;;;;;;;;;;22.70;42.30;;;;;;1558134;76;773;-58
2021/11/12 09:12:07;;;;;;;;;;;22.70;42.20;;;;;;1558521;76;698;-55
2021/11/12 09:14:15;;;;;;;;;;;22.70;42.20;;;;;;1556885;76;1693;-56
2021/11/12 09:16:14;;;;;;;;;;;22.80;42.20;;;;;;1546843;76;1703;-56
2021/11/12 09:18:18;;;;;;;;;;;22.80;42.10;;;;;;1543082;76;1675;-58
2021/11/12 09:20:19;;;;;;;;;;;22.80;42.00;;;;;;1558005;76;1614;-56
2021/11/12 09:22:23;;;;;;;;;;;22.90;42.10;;;;;;1532601;77;731;-56
2021/11/12 09:24:25;;;;;;;;;;;22.90;41.90;;;;;;1542918;76;671;-58
2021/11/12 09:26:26;;;;;;;;;;;23.00;41.80;;;;;;1559250;76;1118;-58
2021/11/12 09:28:28;;;;;;;;;;;23.00;41.60;;;;;;1558902;76;1932;-56
2021/11/12 09:30:34;;;;;;;;;;;23.10;41.60;;;;;;1559269;76;742;-58
2021/11/12 09:32:34;;;;;;;;;;;23.10;41.50;;;;;;1558501;76;1629;-56
2021/11/12 09:34:37;;;;;;;;;;;23.10;41.30;;;;;;1558394;76;728;-55
2021/11/12 09:36:39;;;;;;;;;;;23.20;41.20;;;;;;1559084;76;1082;-59
2021/11/12 09:38:41;;;;;;;;;;;23.20;41.30;;;;;;1559199;76;702;-58
2021/11/12 09:40:43;;;;;;;;;;;23.30;41.30;;;;;;1559024;76;689;-57
2021/11/12 09:42:45;;;;;;;;;;;23.20;41.00;;;;;;1558981;76;785;-56
2021/11/12 09:44:47;;;;;;;;;;;23.20;41.00;;;;;;1559073;76;801;-58
2021/11/12 09:46:49;;;;;;;;;;;23.30;41.00;;;;;;1558961;76;1943;-59
2021/11/12 09:48:51;;;;;;;;;;;23.30;41.00;;;;;;1559051;76;718;-60
2021/11/12 09:50:53;;;;;;;;;;;23.40;40.90;;;;;;1559211;76;788;-56
2021/11/12 09:52:55;;;;;;;;;;;23.40;40.90;;;;;;1558517;76;782;-58
2021/11/12 09:54:57;;;;;;;;;;;23.30;40.90;;;;;;1554789;76;698;-58
2021/11/12 09:56:59;;;;;;;;;;;23.30;40.90;;;;;;1559127;76;1086;-59
2021/11/12 09:59:01;;;;;;;;;;;23.40;40.70;;;;;;1558713;76;779;-58
2021/11/12 10:01:04;;;;;;;;;;;23.30;40.70;;;;;;1559164;76;738;-58
2021/11/12 10:03:08;;;;;;;;;;;23.40;40.70;;;;;;1559025;76;694;-57
2021/11/12 10:05:10;;;;;;;;;;;23.40;40.70;;;;;;1558822;76;1094;-58
2021/11/12 10:07:13;;;;;;;;;;;23.40;40.70;;;;;;1559129;76;1932;-58
2021/11/12 10:09:19;;;;;;;;;;;23.30;40.70;;;;;;1559057;76;728;-59
2021/11/12 10:11:22;;;;;;;;;;;23.40;40.70;;;;;;1552671;76;725;-56
2021/11/12 10:13:37;;;;;;;;;;;23.30;40.70;;;;;;1542862;76;1878;-58
2021/11/12 10:15:39;;;;;;;;;;;23.40;40.60;;;;;;1543576;76;1843;-58
2021/11/12 10:17:42;;;;;;;;;;;23.40;40.60;;;;;;1552661;76;871;-58
2021/11/12 10:19:48;;;;;;;;;;;23.40;40.60;;;;;;1532892;77;799;-57
2021/11/12 10:21:55;;;;;;;;;;;23.40;40.60;;;;;;1557062;76;738;-59
2021/11/12 10:24:07;;;;;;;;;;;23.40;40.60;;;;;;1558555;76;779;-58
2021/11/12 10:26:09;;;;;;;;;;;23.40;40.60;;;;;;1559236;76;1116;-58
2021/11/12 10:28:11;;;;;;;;;;;23.40;40.60;;;;;;1559227;76;1938;-58
2021/11/12 10:30:17;;;;;;;;;;;23.30;40.60;;;;;;1558810;76;782;-58
2021/11/12 10:32:22;;;;;;;;;;;23.40;40.60;;;;;;1559121;76;573;-60
2021/11/12 10:34:25;;;;;;;;;;;23.40;40.70;;;;;;1559006;76;745;-56
2021/11/12 10:36:27;;;;;;;;;;;23.40;40.60;;;;;;1558861;76;1160;-58
2021/11/12 10:38:31;;;;;;;;;;;23.40;40.60;;;;;;1559226;76;755;-60
2021/11/12 10:40:33;;;;;;;;;;;23.40;40.70;;;;;;1559151;76;1936;-57
2021/11/12 10:42:36;;;;;;;;;;;23.50;40.70;;;;;;1558307;76;719;-60
2021/11/12 10:44:40;;;;;;;;;;;23.40;40.60;;;;;;1558623;76;1058;-55
2021/11/12 10:46:42;;;;;;;;;;;23.40;40.60;;;;;;1559208;76;1124;-58
2021/11/12 10:48:44;;;;;;;;;;;23.40;40.60;;;;;;1558788;76;1923;-58
2021/11/12 10:50:46;;;;;;;;;;;23.30;40.70;;;;;;1559108;76;706;-60
2021/11/12 10:52:49;;;;;;;;;;;23.30;40.70;;;;;;1559100;76;746;-58
2021/11/12 10:54:56;;;;;;;;;;;23.30;40.70;;;;;;1558688;76;689;-58
2021/11/12 10:56:58;;;;;;;;;;;23.30;40.70;;;;;;1558987;76;1305;-60
2021/11/12 10:59:02;;;;;;;;;;;23.30;40.60;;;;;;1559364;76;647;-58
2021/11/12 11:01:04;;;;;;;;;;;23.30;40.60;;;;;;1557840;76;1671;-59
2021/11/12 11:03:09;;;;;;;;;;;23.30;40.60;;;;;;1558981;76;705;-60
2021/11/12 11:05:13;;;;;;;;;;;23.30;40.60;;;;;;1559187;76;1104;-59
2021/11/12 11:07:19;;;;;;;;;;;23.40;40.70;;;;;;1558043;76;1905;-57
2021/11/12 11:09:21;;;;;;;;;;;23.30;40.80;;;;;;1533260;77;803;-58
2021/11/12 11:11:23;;;;;;;;;;;23.10;40.70;;;;;;1529088;76;807;-58
2021/11/12 11:13:26;;;;;;;;;;;23.30;40.90;;;;;;1557961;75;689;-58
2021/11/12 11:15:31;;;;;;;;;;;23.30;40.90;;;;;;1538681;76;1706;-58
2021/11/12 11:17:33;;;;;;;;;;;23.30;41.00;;;;;;1538594;76;894;-58
2021/11/12 11:19:35;;;;;;;;;;;23.30;40.90;;;;;;1532815;76;798;-58
2021/11/12 11:21:37;;;;;;;;;;;23.40;40.90;;;;;;1533121;76;702;-59
2021/11/12 11:23:46;;;;;;;;;;;23.40;40.90;;;;;;1534438;76;679;-60
2021/11/12 11:25:53;;;;;;;;;;;23.30;40.90;;;;;;1551698;76;1185;-58
2021/11/12 11:27:56;;;;;;;;;;;23.30;40.80;;;;;;1558435;76;1929;-58
2021/11/12 11:29:59;;;;;;;;;;;23.30;40.90;;;;;;1539856;76;708;-58
2021/11/12 11:32:01;;;;;;;;;;;23.30;41.00;;;;;;1532657;76;1032;-58
2021/11/12 11:34:04;;;;;;;;;;;23.30;41.00;;;;;;1538302;76;714;-58
2021/11/12 11:36:06;;;;;;;;;;;23.20;40.90;;;;;;1533122;76;1153;-59
2021/11/12 11:38:08;;;;;;;;;;;23.30;41.00;;;;;;1532836;76;733;-58
2021/11/12 11:40:10;;;;;;;;;;;23.30;41.00;;;;;;1541603;76;721;-58
2021/11/12 11:42:13;;;;;;;;;;;23.30;40.90;;;;;;1545593;76;654;-58
2021/11/12 11:44:15;;;;;;;;;;;23.30;40.80;;;;;;1554851;76;748;-59
2021/11/12 11:46:22;;;;;;;;;;;23.30;40.80;;;;;;1558987;76;1165;-59
2021/11/12 11:48:24;;;;;;;;;;;23.30;40.70;;;;;;1559155;76;1916;-58
2021/11/12 11:50:30;;;;;;;;;;;23.30;40.70;;;;;;1556181;76;648;-59
2021/11/12 11:52:31;;;;;;;;;;;23.30;40.70;;;;;;1558831;76;700;-57
2021/11/12 11:54:38;;;;;;;;;;;23.30;40.70;;;;;;1557312;76;1010;-57
2021/11/12 11:56:42;;;;;;;;;;;23.30;40.60;;;;;;1557363;76;1869;-58
2021/11/12 11:58:51;;;;;;;;;;;23.40;40.50;;;;;;1550375;76;719;-58
2021/11/12 12:00:55;;;;;;;;;;;23.30;40.50;;;;;;1538342;76;728;-59
2021/11/12 12:03:15;;;;;;;;;;;23.30;40.50;;;;;;1532528;76;1665;-58
2021/11/12 12:05:17;;;;;;;;;;;23.30;40.40;;;;;;1556824;76;1127;-58
2021/11/12 12:07:22;;;;;;;;;;;23.30;40.50;;;;;;1556180;76;715;-59
2021/11/12 12:09:28;;;;;;;;;;;23.30;40.50;;;;;;1558842;76;1926;-59
2021/11/12 12:11:28;;;;;;;;;;;23.30;40.50;;;;;;1526071;76;1705;-59
2021/11/12 12:13:30;;;;;;;;;;;23.30;40.50;;;;;;1555862;76;687;-59
2021/11/12 12:15:33;;;;;;;;;;;23.30;40.50;;;;;;1556387;76;1143;-58
2021/11/12 12:17:37;;;;;;;;;;;23.30;40.50;;;;;;1548806;76;662;-59
2021/11/12 12:19:55;;;;;;;;;;;23.30;40.40;;;;;;1552091;76;1773;-59
2021/11/12 12:22:10;;;;;;;;;;;23.30;40.40;;;;;;1544135;76;1635;-59
2021/11/12 13:19:34;;;;;;;;;;;23.00;39.80;;;;;;1533041;76;1654;-59
2021/11/12 13:22:57;;;;;;;;;;;23.10;40.00;;;;;;1537500;76;735;-59
2021/11/12 13:24:56;;;;;;;;;;;23.10;39.90;;;;;;1542926;76;1693;-59
2021/11/12 13:27:02;;;;;;;;;;;23.10;39.90;;;;;;1532799;76;1208;-58
2021/11/12 13:29:05;;;;;;;;;;;23.10;39.90;;;;;;1531834;76;1932;-57
2021/11/12 13:31:11;;;;;;;;;;;23.00;39.70;;;;;;1547362;76;726;-57
2021/11/12 13:33:27;;;;;;;;;;;23.00;39.70;;;;;;1539792;76;757;-57
2021/11/12 13:35:30;;;;;;;;;;;23.00;39.60;;;;;;1537460;76;1846;-58
2021/11/12 13:37:31;;;;;;;;;;;23.00;39.70;;;;;;1551326;76;708;-58
2021/11/12 13:39:33;;;;;;;;;;;23.00;39.60;;;;;;1537461;76;788;-59
2021/11/12 13:41:36;;;;;;;;;;;23.10;39.60;;;;;;1552778;76;726;-59
2021/11/12 13:43:42;;;;;;;;;;;23.10;39.60;;;;;;1536893;76;750;-59
2021/11/12 13:45:44;;;;;;;;;;;23.20;39.50;;;;;;1533026;76;1169;-59
2021/11/12 13:47:46;;;;;;;;;;;23.10;39.50;;;;;;1533067;76;729;-59
2021/11/12 13:49:53;;;;;;;;;;;23.10;39.70;;;;;;1532880;76;1928;-59
2021/11/12 13:51:55;;;;;;;;;;;23.00;39.50;;;;;;1557604;76;1532;-58
2021/11/12 13:53:58;;;;;;;;;;;23.00;39.60;;;;;;1557866;76;1969;-59
2021/11/12 13:56:00;;;;;;;;;;;23.00;39.70;;;;;;1532735;76;1191;-59
2021/11/12 13:58:03;;;;;;;;;;;23.00;39.70;;;;;;1532918;76;770;-59
2021/11/12 14:00:06;;;;;;;;;;;22.90;39.70;;;;;;1533294;76;729;-58
2021/11/12 14:02:08;;;;;;;;;;;22.90;39.70;;;;;;1552745;76;987;-59
2021/11/12 14:04:23;;;;;;;;;;;22.90;39.70;;;;;;1559480;76;806;-59
2021/11/12 14:06:26;;;;;;;;;;;22.90;39.70;;;;;;1559344;76;1137;-58
2021/11/12 14:08:34;;;;;;;;;;;22.80;39.60;;;;;;1557879;76;1928;-58
2021/11/12 14:10:39;;;;;;;;;;;22.80;39.70;;;;;;1555956;76;728;-59
2021/11/12 14:12:57;;;;;;;;;;;22.80;39.70;;;;;;1536149;76;1973;-58
2021/11/12 14:15:33;;;;;;;;;;;22.80;39.60;;;;;;1543496;76;685;-58
2021/11/12 14:17:17;;;;;;;;;;;22.70;39.70;;;;;;1533938;76;1405;-59
2021/11/12 14:21:43;;;;;;;;;;;22.70;39.70;;;;;;1550754;76;690;-59
2021/11/12 14:23:52;;;;;;;;;;;22.70;39.70;;;;;;1532912;76;1734;-59
2021/11/12 14:28:16;;;;;;;;;;;22.70;39.70;;;;;;1549571;76;1903;-58
2021/11/12 14:34:55;;;;;;;;;;;22.70;39.70;;;;;;1543636;76;876;-58
2021/11/12 14:36:56;;;;;;;;;;;22.60;39.50;;;;;;1529884;76;1641;-59
2021/11/12 14:39:05;;;;;;;;;;;22.60;39.50;;;;;;1534534;73;2082;-56
2021/11/12 14:45:43;;;;;;;;;;;22.60;39.50;;;;;;1576411;74;1213;-55
2021/11/12 14:50:12;;;;;;;;;;;22.60;39.40;;;;;;1598059;74;1841;-55
2021/11/12 14:52:14;;;;;;;;;;;22.60;39.40;;;;;;1573387;74;1748;-55
2021/11/12 14:54:16;;;;;;;;;;;22.70;39.50;;;;;;1553048;74;1475;-55
2021/11/12 14:56:28;;;;;;;;;;;22.60;39.40;;;;;;1576068;74;1139;-54
2021/11/12 14:58:30;;;;;;;;;;;22.60;39.40;;;;;;1576453;74;2014;-54
2021/11/12 15:00:34;;;;;;;;;;;22.60;39.40;;;;;;1584520;74;706;-54
2021/11/12 15:02:36;;;;;;;;;;;22.70;39.40;;;;;;1570221;74;698;-54
2021/11/12 15:04:38;;;;;;;;;;;22.60;39.30;;;;;;1578500;74;785;-54
2021/11/12 15:06:40;;;;;;;;;;;22.60;39.20;;;;;;1585010;74;1058;-55
2021/11/12 15:08:53;;;;;;;;;;;22.70;39.30;;;;;;1569133;74;1938;-54
2021/11/12 15:10:46;;;;;;;;;;;22.70;39.20;;;;;;1567302;74;1560;-55
2021/11/12 15:12:50;;;;;;;;;;;22.70;39.20;;;;;;1566294;74;768;-55
2021/11/12 15:14:57;;;;;;;;;;;22.80;39.20;;;;;;1572445;74;1564;-55
2021/11/12 15:16:58;;;;;;;;;;;22.70;39.20;;;;;;1590898;73;1629;-55
2021/11/12 15:19:02;;;;;;;;;;;22.60;38.90;;;;;;1591199;74;702;-53
2021/11/12 15:21:09;;;;;;;;;;;22.70;39.00;;;;;;1570025;74;781;-55
2021/11/12 15:29:46;;;;;;;;;;;22.70;38.90;;;;;;1590452;73;1915;-56
2021/11/12 15:34:06;;;;;;;;;;;22.70;38.80;;;;;;1574634;74;1679;-55
2021/11/12 15:36:11;;;;;;;;;;;22.70;38.90;;;;;;1571194;73;1723;-55
2021/11/12 15:42:53;;;;;;;;;;;22.70;38.80;;;;;;1570814;74;664;-55
2021/11/12 15:44:43;;;;;;;;;;;22.70;38.80;;;;;;1553846;74;1590;-56
2021/11/12 15:46:48;;;;;;;;;;;22.60;38.70;;;;;;1572918;74;1117;-55
2021/11/12 15:48:49;;;;;;;;;;;22.70;38.80;;;;;;1564916;74;1923;-55
2021/11/12 15:53:16;;;;;;;;;;;22.60;38.60;;;;;;1576762;74;877;-54
2021/11/12 16:09:06;;;;;;;;;;;22.60;38.60;;;;;;1576312;74;1922;-56
2021/11/12 16:11:18;;;;;;;;;;;22.60;38.60;;;;;;1571798;75;1548;-56
2021/11/12 16:13:18;;;;;;;;;;;22.50;38.60;;;;;;1568471;73;1713;-56
2021/11/12 16:24:22;;;;;;;;;;;22.50;38.50;;;;;;1555417;75;862;-55
2021/11/12 16:26:16;;;;;;;;;;;22.50;38.50;;;;;;1576143;73;1630;-55
2021/11/12 16:28:22;;;;;;;;;;;22.50;38.50;;;;;;1556386;74;1462;-55
2021/11/12 16:30:29;;;;;;;;;;;22.50;38.40;;;;;;1565307;74;1907;-55
2021/11/12 16:32:38;;;;;;;;;;;22.60;38.50;;;;;;1562804;74;1554;-55
2021/11/12 16:34:36;;;;;;;;;;;22.60;38.40;;;;;;1566167;74;1586;-55
2021/11/12 16:36:36;;;;;;;;;;;22.60;38.40;;;;;;1565518;74;1550;-56
2021/11/12 16:38:39;;;;;;;;;;;22.60;38.30;;;;;;1566859;74;1963;-55
2021/11/12 16:40:44;;;;;;;;;;;22.70;38.30;;;;;;1556770;74;773;-55
2021/11/12 16:43:12;;;;;;;;;;;22.70;38.30;;;;;;1564085;74;1686;-55
2021/11/12 16:47:50;;;;;;;;;;;22.80;38.10;;;;;;1565259;74;1652;-55
2021/11/12 16:52:37;;;;;;;;;;;22.90;38.10;;;;;;1562133;74;808;-54
2021/11/12 16:59:08;;;;;;;;;;;22.90;38.00;;;;;;1569248;74;1636;-55
2021/11/12 17:03:56;;;;;;;;;;;23.00;38.00;;;;;;1562586;74;825;-54
2021/11/12 17:05:51;;;;;;;;;;;23.00;37.90;;;;;;1561987;74;1649;-56
2021/11/12 17:08:10;;;;;;;;;;;23.10;38.10;;;;;;1553339;74;1566;-54
2021/11/12 17:10:17;;;;;;;;;;;23.00;37.90;;;;;;1562494;74;1934;-55
2021/11/12 17:18:51;;;;;;;;;;;23.10;38.00;;;;;;1554781;74;854;-57
2021/11/12 17:23:45;;;;;;;;;;;23.10;37.90;;;;;;1568170;74;867;-55
2021/11/12 17:46:13;;;;;;;;;;;23.20;37.80;;;;;;1541921;75;1144;-55
2021/11/12 17:48:00;;;;;;;;;;;23.20;37.90;;;;;;1573084;75;1678;-54
2021/11/12 18:03:34;;;;;;;;;;;23.20;38.10;;;;;;1569078;74;1611;-55
2021/11/12 18:05:43;;;;;;;;;;;23.20;38.10;;;;;;1583716;73;1620;-55
2021/11/12 18:10:11;;;;;;;;;;;23.20;38.10;;;;;;1540426;75;1928;-56
2021/11/12 21:44:02;;;;;;;;;;;22.50;42.10;;;;;;1609701;74;1881;-68